sensor_id;sensor_type;location;lat;lon;timestamp;temperature;humidity
8422;DHT22;4248;48.196;10.924;2023-03-01T00:00:38;1.80;47.30
8422;DHT22;4248;48.196;10.924;2023-03-01T00:03:04;1.80;47.10
8422;DHT22;4248;48.196;10.924;2023-03-01T00:05:30;1.80;47.10
8422;DHT22;4248;48.196;10.924;2023-03-01T00:07:55;1.80;46.90
8422;DHT22;4248;48.196;10.924;2023-03-01T00:10:21;1.90;47.00
8422;DHT22;4248;48.196;10.924;2023-03-01T00:12:47;1.80;46.90
8422;DHT22;4248;48.196;10.924;2023-03-01T00:15:13;1.90;46.90
8422;DHT22;4248;48.196;10.924;2023-03-01T00:17:39;1.80;47.10
8422;DHT22;4248;48.196;10.924;2023-03-01T00:20:05;1.90;47.00
8422;DHT22;4248;48.196;10.924;2023-03-01T00:22:39;1.90;47.00
8422;DHT22;4248;48.196;10.924;2023-03-01T00:25:05;1.90;46.90
8422;DHT22;4248;48.196;10.924;2023-03-01T00:27:30;1.90;46.70
8422;DHT22;4248;48.196;10.924;2023-03-01T00:29:56;1.90;46.90
8422;DHT22;4248;48.196;10.924;2023-03-01T00:32:22;1.90;47.00
8422;DHT22;4248;48.196;10.924;2023-03-01T00:34:48;1.80;47.20
8422;DHT22;4248;48.196;10.924;2023-03-01T00:37:23;1.80;47.30
8422;DHT22;4248;48.196;10.924;2023-03-01T00:39:49;1.80;47.20
8422;DHT22;4248;48.196;10.924;2023-03-01T00:42:16;1.80;47.00
8422;DHT22;4248;48.196;10.924;2023-03-01T00:44:41;1.80;47.40
8422;DHT22;4248;48.196;10.924;2023-03-01T00:47:07;2.00;47.40
8422;DHT22;4248;48.196;10.924;2023-03-01T00:49:33;1.90;47.20
8422;DHT22;4248;48.196;10.924;2023-03-01T00:51:59;1.90;47.10
8422;DHT22;4248;48.196;10.924;2023-03-01T00:54:25;1.80;47.30
8422;DHT22;4248;48.196;10.924;2023-03-01T00:56:51;1.90;47.30
8422;DHT22;4248;48.196;10.924;2023-03-01T00:59:16;1.90;47.20
8422;DHT22;4248;48.196;10.924;2023-03-01T01:01:42;1.80;47.20
8422;DHT22;4248;48.196;10.924;2023-03-01T01:04:11;1.90;47.50
8422;DHT22;4248;48.196;10.924;2023-03-01T01:06:39;2.00;47.70
8422;DHT22;4248;48.196;10.924;2023-03-01T01:09:09;1.90;47.30
8422;DHT22;4248;48.196;10.924;2023-03-01T01:11:35;1.90;47.30
8422;DHT22;4248;48.196;10.924;2023-03-01T01:14:02;1.90;47.20
8422;DHT22;4248;48.196;10.924;2023-03-01T01:16:29;1.90;47.20
8422;DHT22;4248;48.196;10.924;2023-03-01T01:18:56;1.90;47.40
8422;DHT22;4248;48.196;10.924;2023-03-01T01:21:23;1.80;47.40
8422;DHT22;4248;48.196;10.924;2023-03-01T01:23:51;1.80;47.60
8422;DHT22;4248;48.196;10.924;2023-03-01T01:26:20;1.80;47.70
8422;DHT22;4248;48.196;10.924;2023-03-01T01:28:47;1.80;47.70
8422;DHT22;4248;48.196;10.924;2023-03-01T01:31:13;1.80;47.50
8422;DHT22;4248;48.196;10.924;2023-03-01T01:33:40;1.80;47.60
8422;DHT22;4248;48.196;10.924;2023-03-01T01:36:07;1.90;47.40
8422;DHT22;4248;48.196;10.924;2023-03-01T01:38:34;1.90;47.40
8422;DHT22;4248;48.196;10.924;2023-03-01T01:41:00;1.90;47.30
8422;DHT22;4248;48.196;10.924;2023-03-01T01:43:29;1.90;47.50
8422;DHT22;4248;48.196;10.924;2023-03-01T01:45:58;1.90;47.70
8422;DHT22;4248;48.196;10.924;2023-03-01T01:48:37;1.90;47.60
8422;DHT22;4248;48.196;10.924;2023-03-01T01:51:08;1.80;47.50
8422;DHT22;4248;48.196;10.924;2023-03-01T01:53:35;1.80;47.70
8422;DHT22;4248;48.196;10.924;2023-03-01T01:56:02;1.80;47.50
8422;DHT22;4248;48.196;10.924;2023-03-01T01:58:30;1.80;47.50
8422;DHT22;4248;48.196;10.924;2023-03-01T02:00:56;1.80;47.60
8422;DHT22;4248;48.196;10.924;2023-03-01T02:03:28;1.80;47.60
8422;DHT22;4248;48.196;10.924;2023-03-01T02:08:22;1.80;47.70
8422;DHT22;4248;48.196;10.924;2023-03-01T02:10:49;1.80;47.70
8422;DHT22;4248;48.196;10.924;2023-03-01T02:13:15;1.80;47.70
8422;DHT22;4248;48.196;10.924;2023-03-01T02:15:41;1.80;47.90
8422;DHT22;4248;48.196;10.924;2023-03-01T02:18:10;1.80;47.90
8422;DHT22;4248;48.196;10.924;2023-03-01T02:23:23;1.70;48.00
8422;DHT22;4248;48.196;10.924;2023-03-01T02:28:34;1.60;48.30
8422;DHT22;4248;48.196;10.924;2023-03-01T02:31:02;1.60;48.60
8422;DHT22;4248;48.196;10.924;2023-03-01T02:33:47;1.50;48.50
8422;DHT22;4248;48.196;10.924;2023-03-01T02:36:20;1.60;48.50
8422;DHT22;4248;48.196;10.924;2023-03-01T02:38:48;1.60;48.40
8422;DHT22;4248;48.196;10.924;2023-03-01T02:41:17;1.60;48.60
8422;DHT22;4248;48.196;10.924;2023-03-01T02:43:44;1.60;48.40
8422;DHT22;4248;48.196;10.924;2023-03-01T02:46:19;1.60;48.70
8422;DHT22;4248;48.196;10.924;2023-03-01T02:48:50;1.60;48.50
8422;DHT22;4248;48.196;10.924;2023-03-01T02:52:36;1.60;48.40
8422;DHT22;4248;48.196;10.924;2023-03-01T02:57:19;1.60;48.30
8422;DHT22;4248;48.196;10.924;2023-03-01T02:59:48;1.60;48.30
8422;DHT22;4248;48.196;10.924;2023-03-01T03:02:21;1.70;48.30
8422;DHT22;4248;48.196;10.924;2023-03-01T03:05:02;1.60;48.30
8422;DHT22;4248;48.196;10.924;2023-03-01T03:07:27;1.60;48.30
8422;DHT22;4248;48.196;10.924;2023-03-01T03:09:53;1.60;48.40
8422;DHT22;4248;48.196;10.924;2023-03-01T03:12:18;1.60;48.30
8422;DHT22;4248;48.196;10.924;2023-03-01T03:14:44;1.60;48.50
8422;DHT22;4248;48.196;10.924;2023-03-01T03:17:10;1.60;48.50
8422;DHT22;4248;48.196;10.924;2023-03-01T03:19:35;1.60;48.30
8422;DHT22;4248;48.196;10.924;2023-03-01T03:22:01;1.70;48.30
8422;DHT22;4248;48.196;10.924;2023-03-01T03:24:27;1.60;48.20
8422;DHT22;4248;48.196;10.924;2023-03-01T03:27:03;1.60;48.30
8422;DHT22;4248;48.196;10.924;2023-03-01T03:29:29;1.60;48.10
8422;DHT22;4248;48.196;10.924;2023-03-01T03:31:55;1.70;48.20
8422;DHT22;4248;48.196;10.924;2023-03-01T03:34:21;1.70;48.10
8422;DHT22;4248;48.196;10.924;2023-03-01T03:36:46;1.70;48.00
8422;DHT22;4248;48.196;10.924;2023-03-01T03:39:12;1.70;48.20
8422;DHT22;4248;48.196;10.924;2023-03-01T03:41:38;1.70;48.30
8422;DHT22;4248;48.196;10.924;2023-03-01T03:44:03;1.70;48.30
8422;DHT22;4248;48.196;10.924;2023-03-01T03:46:29;1.70;48.00
8422;DHT22;4248;48.196;10.924;2023-03-01T03:48:55;1.70;48.10
8422;DHT22;4248;48.196;10.924;2023-03-01T03:51:21;1.70;48.10
8422;DHT22;4248;48.196;10.924;2023-03-01T03:53:48;1.70;47.90
8422;DHT22;4248;48.196;10.924;2023-03-01T03:56:14;1.70;48.20
8422;DHT22;4248;48.196;10.924;2023-03-01T03:58:40;1.60;48.20
8422;DHT22;4248;48.196;10.924;2023-03-01T04:01:05;1.60;48.30
8422;DHT22;4248;48.196;10.924;2023-03-01T04:03:32;1.60;48.30
8422;DHT22;4248;48.196;10.924;2023-03-01T04:05:59;1.60;48.30
8422;DHT22;4248;48.196;10.924;2023-03-01T04:08:26;1.70;48.20
8422;DHT22;4248;48.196;10.924;2023-03-01T04:10:56;1.60;48.20
8422;DHT22;4248;48.196;10.924;2023-03-01T04:13:23;1.60;48.20
8422;DHT22;4248;48.196;10.924;2023-03-01T04:15:51;1.60;48.30
8422;DHT22;4248;48.196;10.924;2023-03-01T04:18:19;1.60;48.10
8422;DHT22;4248;48.196;10.924;2023-03-01T04:20:45;1.60;48.00
8422;DHT22;4248;48.196;10.924;2023-03-01T04:23:16;1.60;48.10
8422;DHT22;4248;48.196;10.924;2023-03-01T04:25:51;1.60;48.10
8422;DHT22;4248;48.196;10.924;2023-03-01T04:28:30;1.60;48.00
8422;DHT22;4248;48.196;10.924;2023-03-01T04:30:58;1.60;47.90
8422;DHT22;4248;48.196;10.924;2023-03-01T04:33:25;1.70;47.80
8422;DHT22;4248;48.196;10.924;2023-03-01T04:35:52;1.60;47.70
8422;DHT22;4248;48.196;10.924;2023-03-01T04:38:19;1.60;47.80
8422;DHT22;4248;48.196;10.924;2023-03-01T04:40:45;1.60;47.90
8422;DHT22;4248;48.196;10.924;2023-03-01T04:43:11;1.60;47.90
8422;DHT22;4248;48.196;10.924;2023-03-01T04:45:40;1.60;48.00
8422;DHT22;4248;48.196;10.924;2023-03-01T04:48:06;1.50;48.00
8422;DHT22;4248;48.196;10.924;2023-03-01T04:50:31;1.60;48.00
8422;DHT22;4248;48.196;10.924;2023-03-01T04:52:57;1.50;47.80
8422;DHT22;4248;48.196;10.924;2023-03-01T04:55:25;1.60;47.80
8422;DHT22;4248;48.196;10.924;2023-03-01T04:57:52;1.50;47.70
8422;DHT22;4248;48.196;10.924;2023-03-01T05:00:18;1.50;47.70
8422;DHT22;4248;48.196;10.924;2023-03-01T05:02:54;1.50;47.70
8422;DHT22;4248;48.196;10.924;2023-03-01T05:07:55;1.40;47.80
8422;DHT22;4248;48.196;10.924;2023-03-01T05:10:21;1.40;47.80
8422;DHT22;4248;48.196;10.924;2023-03-01T05:12:48;1.40;47.70
8422;DHT22;4248;48.196;10.924;2023-03-01T05:15:13;1.40;47.80
8422;DHT22;4248;48.196;10.924;2023-03-01T05:17:40;1.40;47.70
8422;DHT22;4248;48.196;10.924;2023-03-01T05:20:05;1.40;47.60
8422;DHT22;4248;48.196;10.924;2023-03-01T05:22:35;1.40;47.60
8422;DHT22;4248;48.196;10.924;2023-03-01T05:25:01;1.40;47.40
8422;DHT22;4248;48.196;10.924;2023-03-01T05:27:26;1.40;47.40
8422;DHT22;4248;48.196;10.924;2023-03-01T05:29:52;1.50;47.50
8422;DHT22;4248;48.196;10.924;2023-03-01T05:32:18;1.30;47.50
8422;DHT22;4248;48.196;10.924;2023-03-01T05:34:43;1.30;47.50
8422;DHT22;4248;48.196;10.924;2023-03-01T05:37:12;1.30;47.30
8422;DHT22;4248;48.196;10.924;2023-03-01T05:39:39;1.20;47.20
8422;DHT22;4248;48.196;10.924;2023-03-01T05:42:04;1.30;47.40
8422;DHT22;4248;48.196;10.924;2023-03-01T05:44:30;1.20;47.30
8422;DHT22;4248;48.196;10.924;2023-03-01T05:46:56;1.30;47.50
8422;DHT22;4248;48.196;10.924;2023-03-01T05:49:22;1.10;47.60
8422;DHT22;4248;48.196;10.924;2023-03-01T05:51:50;1.00;47.50
8422;DHT22;4248;48.196;10.924;2023-03-01T05:54:17;1.00;47.60
8422;DHT22;4248;48.196;10.924;2023-03-01T05:56:43;1.00;47.50
8422;DHT22;4248;48.196;10.924;2023-03-01T05:59:09;1.00;47.40
8422;DHT22;4248;48.196;10.924;2023-03-01T06:01:35;1.00;47.20
8422;DHT22;4248;48.196;10.924;2023-03-01T06:04:02;1.00;47.20
8422;DHT22;4248;48.196;10.924;2023-03-01T06:06:27;0.90;47.10
8422;DHT22;4248;48.196;10.924;2023-03-01T06:08:53;0.90;47.20
8422;DHT22;4248;48.196;10.924;2023-03-01T06:11:20;0.90;47.10
8422;DHT22;4248;48.196;10.924;2023-03-01T06:13:46;0.90;47.10
8422;DHT22;4248;48.196;10.924;2023-03-01T06:16:13;0.90;47.00
8422;DHT22;4248;48.196;10.924;2023-03-01T06:18:40;0.80;47.00
8422;DHT22;4248;48.196;10.924;2023-03-01T06:21:07;0.80;47.10
8422;DHT22;4248;48.196;10.924;2023-03-01T06:23:34;0.90;46.80
8422;DHT22;4248;48.196;10.924;2023-03-01T06:26:00;0.90;46.50
8422;DHT22;4248;48.196;10.924;2023-03-01T06:28:26;1.00;46.40
8422;DHT22;4248;48.196;10.924;2023-03-01T06:30:52;0.90;46.70
8422;DHT22;4248;48.196;10.924;2023-03-01T06:33:19;0.80;46.60
8422;DHT22;4248;48.196;10.924;2023-03-01T06:35:46;0.80;46.70
8422;DHT22;4248;48.196;10.924;2023-03-01T06:38:12;0.80;46.80
8422;DHT22;4248;48.196;10.924;2023-03-01T06:40:40;0.80;46.60
8422;DHT22;4248;48.196;10.924;2023-03-01T06:43:06;0.80;46.60
8422;DHT22;4248;48.196;10.924;2023-03-01T06:45:33;0.80;46.50
8422;DHT22;4248;48.196;10.924;2023-03-01T06:48:03;0.80;46.50
8422;DHT22;4248;48.196;10.924;2023-03-01T06:50:29;0.80;46.40
8422;DHT22;4248;48.196;10.924;2023-03-01T06:52:56;0.80;46.70
8422;DHT22;4248;48.196;10.924;2023-03-01T06:55:22;0.80;46.60
8422;DHT22;4248;48.196;10.924;2023-03-01T06:57:47;0.80;46.60
8422;DHT22;4248;48.196;10.924;2023-03-01T07:00:13;0.80;46.50
8422;DHT22;4248;48.196;10.924;2023-03-01T07:02:40;0.90;46.40
8422;DHT22;4248;48.196;10.924;2023-03-01T07:05:06;1.00;46.10
8422;DHT22;4248;48.196;10.924;2023-03-01T07:07:32;1.00;45.50
8422;DHT22;4248;48.196;10.924;2023-03-01T07:09:57;0.90;45.80
8422;DHT22;4248;48.196;10.924;2023-03-01T07:12:23;0.90;46.00
8422;DHT22;4248;48.196;10.924;2023-03-01T07:14:49;1.00;45.80
8422;DHT22;4248;48.196;10.924;2023-03-01T07:17:14;1.00;45.80
8422;DHT22;4248;48.196;10.924;2023-03-01T07:19:40;1.10;45.90
8422;DHT22;4248;48.196;10.924;2023-03-01T07:22:05;1.00;45.70
8422;DHT22;4248;48.196;10.924;2023-03-01T07:24:33;1.10;45.70
8422;DHT22;4248;48.196;10.924;2023-03-01T07:26:59;1.10;46.50
8422;DHT22;4248;48.196;10.924;2023-03-01T07:29:24;1.20;45.10
8422;DHT22;4248;48.196;10.924;2023-03-01T07:31:50;1.30;45.20
8422;DHT22;4248;48.196;10.924;2023-03-01T07:34:16;1.10;45.00
8422;DHT22;4248;48.196;10.924;2023-03-01T07:36:41;1.10;45.00
8422;DHT22;4248;48.196;10.924;2023-03-01T07:39:09;1.10;45.00
8422;DHT22;4248;48.196;10.924;2023-03-01T07:41:35;1.10;45.00
8422;DHT22;4248;48.196;10.924;2023-03-01T07:44:01;1.10;45.00
8422;DHT22;4248;48.196;10.924;2023-03-01T07:46:26;1.20;45.00
8422;DHT22;4248;48.196;10.924;2023-03-01T07:48:52;1.20;45.10
8422;DHT22;4248;48.196;10.924;2023-03-01T07:51:18;1.30;45.20
8422;DHT22;4248;48.196;10.924;2023-03-01T07:53:46;1.40;46.50
8422;DHT22;4248;48.196;10.924;2023-03-01T07:56:14;1.50;45.30
8422;DHT22;4248;48.196;10.924;2023-03-01T07:58:44;1.50;45.30
8422;DHT22;4248;48.196;10.924;2023-03-01T08:01:13;1.60;45.40
8422;DHT22;4248;48.196;10.924;2023-03-01T08:03:39;1.60;45.40
8422;DHT22;4248;48.196;10.924;2023-03-01T08:06:06;1.60;45.00
8422;DHT22;4248;48.196;10.924;2023-03-01T08:08:34;1.60;45.10
8422;DHT22;4248;48.196;10.924;2023-03-01T08:11:00;1.70;45.40
8422;DHT22;4248;48.196;10.924;2023-03-01T08:13:27;1.70;45.00
8422;DHT22;4248;48.196;10.924;2023-03-01T08:15:53;1.70;45.00
8422;DHT22;4248;48.196;10.924;2023-03-01T08:18:20;1.70;44.80
8422;DHT22;4248;48.196;10.924;2023-03-01T08:20:47;1.70;44.60
8422;DHT22;4248;48.196;10.924;2023-03-01T08:23:13;1.80;44.40
8422;DHT22;4248;48.196;10.924;2023-03-01T08:25:39;1.90;44.40
8422;DHT22;4248;48.196;10.924;2023-03-01T08:28:05;2.00;44.00
8422;DHT22;4248;48.196;10.924;2023-03-01T08:30:31;2.00;43.90
8422;DHT22;4248;48.196;10.924;2023-03-01T08:32:57;2.10;43.70
8422;DHT22;4248;48.196;10.924;2023-03-01T08:35:22;2.00;43.40
8422;DHT22;4248;48.196;10.924;2023-03-01T08:37:48;2.00;43.30
8422;DHT22;4248;48.196;10.924;2023-03-01T08:40:15;2.10;43.30
8422;DHT22;4248;48.196;10.924;2023-03-01T08:42:41;2.30;43.00
8422;DHT22;4248;48.196;10.924;2023-03-01T08:45:09;2.30;42.80
8422;DHT22;4248;48.196;10.924;2023-03-01T08:47:35;2.50;42.70
8422;DHT22;4248;48.196;10.924;2023-03-01T08:50:01;2.40;42.30
8422;DHT22;4248;48.196;10.924;2023-03-01T08:52:27;2.50;42.40
8422;DHT22;4248;48.196;10.924;2023-03-01T08:54:53;2.60;42.50
8422;DHT22;4248;48.196;10.924;2023-03-01T08:57:19;2.60;42.20
8422;DHT22;4248;48.196;10.924;2023-03-01T08:59:44;2.60;42.00
8422;DHT22;4248;48.196;10.924;2023-03-01T09:02:15;2.60;42.00
8422;DHT22;4248;48.196;10.924;2023-03-01T09:04:41;2.70;41.90
8422;DHT22;4248;48.196;10.924;2023-03-01T09:07:08;2.80;41.50
8422;DHT22;4248;48.196;10.924;2023-03-01T09:09:34;2.80;41.30
8422;DHT22;4248;48.196;10.924;2023-03-01T09:12:00;2.80;41.10
8422;DHT22;4248;48.196;10.924;2023-03-01T09:14:26;2.80;40.90
8422;DHT22;4248;48.196;10.924;2023-03-01T09:16:53;2.80;40.80
8422;DHT22;4248;48.196;10.924;2023-03-01T09:19:19;2.80;40.70
8422;DHT22;4248;48.196;10.924;2023-03-01T09:21:44;2.90;40.50
8422;DHT22;4248;48.196;10.924;2023-03-01T09:24:21;2.90;40.50
8422;DHT22;4248;48.196;10.924;2023-03-01T09:26:47;2.80;40.60
8422;DHT22;4248;48.196;10.924;2023-03-01T09:29:14;3.00;40.50
8422;DHT22;4248;48.196;10.924;2023-03-01T09:31:41;3.00;40.10
8422;DHT22;4248;48.196;10.924;2023-03-01T09:34:07;3.00;40.20
8422;DHT22;4248;48.196;10.924;2023-03-01T09:36:34;3.00;40.00
8422;DHT22;4248;48.196;10.924;2023-03-01T09:38:59;3.10;40.00
8422;DHT22;4248;48.196;10.924;2023-03-01T09:44:32;3.20;39.40
8422;DHT22;4248;48.196;10.924;2023-03-01T09:47:00;3.10;39.70
8422;DHT22;4248;48.196;10.924;2023-03-01T09:49:35;3.10;39.90
8422;DHT22;4248;48.196;10.924;2023-03-01T09:52:23;3.20;39.90
8422;DHT22;4248;48.196;10.924;2023-03-01T09:54:54;3.20;39.70
8422;DHT22;4248;48.196;10.924;2023-03-01T10:00:09;3.20;39.50
8422;DHT22;4248;48.196;10.924;2023-03-01T10:02:56;3.20;39.40
8422;DHT22;4248;48.196;10.924;2023-03-01T10:10:39;3.50;38.90
8422;DHT22;4248;48.196;10.924;2023-03-01T10:13:29;3.60;38.70
8422;DHT22;4248;48.196;10.924;2023-03-01T10:16:26;3.50;38.80
8422;DHT22;4248;48.196;10.924;2023-03-01T10:18:53;3.50;38.70
8422;DHT22;4248;48.196;10.924;2023-03-01T10:21:19;3.50;38.50
8422;DHT22;4248;48.196;10.924;2023-03-01T10:23:46;3.70;38.00
8422;DHT22;4248;48.196;10.924;2023-03-01T10:26:30;3.80;38.00
8422;DHT22;4248;48.196;10.924;2023-03-01T10:31:50;3.80;37.70
8422;DHT22;4248;48.196;10.924;2023-03-01T10:34:29;3.90;37.70
8422;DHT22;4248;48.196;10.924;2023-03-01T10:37:09;3.90;37.70
8422;DHT22;4248;48.196;10.924;2023-03-01T10:39:35;3.90;37.20
8422;DHT22;4248;48.196;10.924;2023-03-01T10:42:04;4.00;37.20
8422;DHT22;4248;48.196;10.924;2023-03-01T10:45:16;4.00;37.20
8422;DHT22;4248;48.196;10.924;2023-03-01T10:47:42;4.10;37.00
8422;DHT22;4248;48.196;10.924;2023-03-01T10:50:19;4.30;36.50
8422;DHT22;4248;48.196;10.924;2023-03-01T10:53:00;4.30;37.30
8422;DHT22;4248;48.196;10.924;2023-03-01T10:58:27;4.30;36.00
8422;DHT22;4248;48.196;10.924;2023-03-01T11:00:55;4.30;35.90
8422;DHT22;4248;48.196;10.924;2023-03-01T11:03:33;4.40;36.10
8422;DHT22;4248;48.196;10.924;2023-03-01T11:13:56;4.40;36.10
8422;DHT22;4248;48.196;10.924;2023-03-01T11:16:46;4.40;36.10
8422;DHT22;4248;48.196;10.924;2023-03-01T11:22:03;4.20;36.10
8422;DHT22;4248;48.196;10.924;2023-03-01T11:27:03;4.00;37.30
8422;DHT22;4248;48.196;10.924;2023-03-01T11:29:35;3.90;37.80
8422;DHT22;4248;48.196;10.924;2023-03-01T11:32:06;3.90;38.30
8422;DHT22;4248;48.196;10.924;2023-03-01T11:37:28;3.90;37.80
8422;DHT22;4248;48.196;10.924;2023-03-01T11:40:10;4.00;38.10
8422;DHT22;4248;48.196;10.924;2023-03-01T11:45:11;4.30;37.20
8422;DHT22;4248;48.196;10.924;2023-03-01T11:47:58;4.20;37.10
8422;DHT22;4248;48.196;10.924;2023-03-01T11:50:47;4.10;37.00
8422;DHT22;4248;48.196;10.924;2023-03-01T11:56:31;4.10;37.30
8422;DHT22;4248;48.196;10.924;2023-03-01T11:59:09;4.30;37.50
8422;DHT22;4248;48.196;10.924;2023-03-01T12:04:57;4.40;37.50
8422;DHT22;4248;48.196;10.924;2023-03-01T12:07:39;4.60;37.20
8422;DHT22;4248;48.196;10.924;2023-03-01T12:10:26;4.80;36.80
8422;DHT22;4248;48.196;10.924;2023-03-01T12:29:00;5.30;35.30
8422;DHT22;4248;48.196;10.924;2023-03-01T12:31:36;5.40;35.00
8422;DHT22;4248;48.196;10.924;2023-03-01T12:34:12;5.40;34.10
8422;DHT22;4248;48.196;10.924;2023-03-01T12:48:14;5.40;34.10
8422;DHT22;4248;48.196;10.924;2023-03-01T12:50:47;5.50;34.00
8422;DHT22;4248;48.196;10.924;2023-03-01T12:56:07;5.70;33.30
8422;DHT22;4248;48.196;10.924;2023-03-01T13:06:34;6.10;32.50
8422;DHT22;4248;48.196;10.924;2023-03-01T13:09:48;6.20;32.60
8422;DHT22;4248;48.196;10.924;2023-03-01T13:12:43;6.10;32.50
8422;DHT22;4248;48.196;10.924;2023-03-01T13:20:20;5.70;33.20
8422;DHT22;4248;48.196;10.924;2023-03-01T13:22:47;5.50;33.40
8422;DHT22;4248;48.196;10.924;2023-03-01T13:25:19;5.50;33.70
8422;DHT22;4248;48.196;10.924;2023-03-01T13:27:46;5.50;33.90
8422;DHT22;4248;48.196;10.924;2023-03-01T13:33:40;5.80;33.80
8422;DHT22;4248;48.196;10.924;2023-03-01T13:36:08;6.00;33.20
8422;DHT22;4248;48.196;10.924;2023-03-01T13:41:52;6.20;33.00
8422;DHT22;4248;48.196;10.924;2023-03-01T13:44:25;6.30;32.80
8422;DHT22;4248;48.196;10.924;2023-03-01T13:49:41;6.30;32.70
8422;DHT22;4248;48.196;10.924;2023-03-01T13:54:53;6.60;32.70
8422;DHT22;4248;48.196;10.924;2023-03-01T13:57:24;6.70;32.40
8422;DHT22;4248;48.196;10.924;2023-03-01T13:59:50;6.80;32.20
8422;DHT22;4248;48.196;10.924;2023-03-01T14:02:16;6.80;32.10
8422;DHT22;4248;48.196;10.924;2023-03-01T14:04:42;6.50;32.20
8422;DHT22;4248;48.196;10.924;2023-03-01T14:07:28;6.40;32.70
8422;DHT22;4248;48.196;10.924;2023-03-01T14:10:03;6.30;33.20
8422;DHT22;4248;48.196;10.924;2023-03-01T14:12:55;6.20;33.40
8422;DHT22;4248;48.196;10.924;2023-03-01T14:18:28;6.20;33.80
8422;DHT22;4248;48.196;10.924;2023-03-01T14:20:51;6.20;33.60
8422;DHT22;4248;48.196;10.924;2023-03-01T14:23:23;6.30;33.80
8422;DHT22;4248;48.196;10.924;2023-03-01T14:25:51;6.30;33.80
8422;DHT22;4248;48.196;10.924;2023-03-01T14:28:24;6.20;33.70
8422;DHT22;4248;48.196;10.924;2023-03-01T14:30:53;6.20;33.90
8422;DHT22;4248;48.196;10.924;2023-03-01T14:33:28;6.20;34.10
8422;DHT22;4248;48.196;10.924;2023-03-01T14:38:47;6.30;33.90
8422;DHT22;4248;48.196;10.924;2023-03-01T14:41:16;6.20;33.80
8422;DHT22;4248;48.196;10.924;2023-03-01T14:44:05;6.10;34.00
8422;DHT22;4248;48.196;10.924;2023-03-01T14:46:37;6.20;34.20
8422;DHT22;4248;48.196;10.924;2023-03-01T14:49:06;6.20;34.30
8422;DHT22;4248;48.196;10.924;2023-03-01T14:51:37;6.30;34.40
8422;DHT22;4248;48.196;10.924;2023-03-01T14:54:10;6.40;34.50
8422;DHT22;4248;48.196;10.924;2023-03-01T14:56:45;6.40;34.40
8422;DHT22;4248;48.196;10.924;2023-03-01T14:59:11;6.40;34.40
8422;DHT22;4248;48.196;10.924;2023-03-01T15:01:37;6.30;34.60
8422;DHT22;4248;48.196;10.924;2023-03-01T15:04:05;6.20;34.80
8422;DHT22;4248;48.196;10.924;2023-03-01T15:06:31;6.30;34.70
8422;DHT22;4248;48.196;10.924;2023-03-01T15:08:57;6.20;34.60
8422;DHT22;4248;48.196;10.924;2023-03-01T15:11:28;6.20;34.90
8422;DHT22;4248;48.196;10.924;2023-03-01T15:13:54;6.20;35.00
8422;DHT22;4248;48.196;10.924;2023-03-01T15:16:31;6.20;35.00
8422;DHT22;4248;48.196;10.924;2023-03-01T15:19:03;6.10;35.00
8422;DHT22;4248;48.196;10.924;2023-03-01T15:21:49;6.10;35.30
8422;DHT22;4248;48.196;10.924;2023-03-01T15:24:23;6.10;35.30
8422;DHT22;4248;48.196;10.924;2023-03-01T15:29:26;6.10;35.40
8422;DHT22;4248;48.196;10.924;2023-03-01T15:34:57;6.10;35.90
8422;DHT22;4248;48.196;10.924;2023-03-01T15:37:44;6.20;36.00
8422;DHT22;4248;48.196;10.924;2023-03-01T15:40:25;6.20;36.00
8422;DHT22;4248;48.196;10.924;2023-03-01T15:42:57;6.10;36.10
8422;DHT22;4248;48.196;10.924;2023-03-01T15:45:25;6.10;36.00
8422;DHT22;4248;48.196;10.924;2023-03-01T15:47:57;6.00;36.00
8422;DHT22;4248;48.196;10.924;2023-03-01T15:50:26;6.00;36.00
8422;DHT22;4248;48.196;10.924;2023-03-01T15:52:53;6.00;35.90
8422;DHT22;4248;48.196;10.924;2023-03-01T15:55:22;5.90;36.10
8422;DHT22;4248;48.196;10.924;2023-03-01T15:57:48;5.90;36.30
8422;DHT22;4248;48.196;10.924;2023-03-01T16:00:15;5.90;36.40
8422;DHT22;4248;48.196;10.924;2023-03-01T16:02:43;5.80;36.60
8422;DHT22;4248;48.196;10.924;2023-03-01T16:05:27;5.80;36.90
8422;DHT22;4248;48.196;10.924;2023-03-01T16:07:53;5.70;37.00
8422;DHT22;4248;48.196;10.924;2023-03-01T16:10:19;5.70;37.20
8422;DHT22;4248;48.196;10.924;2023-03-01T16:12:45;5.70;37.30
8422;DHT22;4248;48.196;10.924;2023-03-01T16:15:26;5.60;37.40
8422;DHT22;4248;48.196;10.924;2023-03-01T16:17:52;5.60;37.60
8422;DHT22;4248;48.196;10.924;2023-03-01T16:20:18;5.60;37.80
8422;DHT22;4248;48.196;10.924;2023-03-01T16:22:45;5.50;37.70
8422;DHT22;4248;48.196;10.924;2023-03-01T16:25:13;5.50;37.70
8422;DHT22;4248;48.196;10.924;2023-03-01T16:27:42;5.50;37.60
8422;DHT22;4248;48.196;10.924;2023-03-01T16:30:08;5.50;37.70
8422;DHT22;4248;48.196;10.924;2023-03-01T16:32:41;5.50;37.60
8422;DHT22;4248;48.196;10.924;2023-03-01T16:35:08;5.50;37.70
8422;DHT22;4248;48.196;10.924;2023-03-01T16:37:35;5.40;38.10
8422;DHT22;4248;48.196;10.924;2023-03-01T16:40:01;5.30;38.20
8422;DHT22;4248;48.196;10.924;2023-03-01T16:42:33;5.20;38.40
8422;DHT22;4248;48.196;10.924;2023-03-01T16:44:59;5.10;38.70
8422;DHT22;4248;48.196;10.924;2023-03-01T16:47:25;5.10;38.80
8422;DHT22;4248;48.196;10.924;2023-03-01T16:49:52;5.00;38.80
8422;DHT22;4248;48.196;10.924;2023-03-01T16:52:18;5.00;39.00
8422;DHT22;4248;48.196;10.924;2023-03-01T16:54:43;4.90;38.90
8422;DHT22;4248;48.196;10.924;2023-03-01T16:57:09;4.90;39.20
8422;DHT22;4248;48.196;10.924;2023-03-01T16:59:35;4.80;39.20
8422;DHT22;4248;48.196;10.924;2023-03-01T17:02:01;4.90;39.30
8422;DHT22;4248;48.196;10.924;2023-03-01T17:04:27;4.90;39.00
8422;DHT22;4248;48.196;10.924;2023-03-01T17:06:52;5.00;38.90
8422;DHT22;4248;48.196;10.924;2023-03-01T17:09:18;5.10;38.70
8422;DHT22;4248;48.196;10.924;2023-03-01T17:11:47;5.10;38.60
8422;DHT22;4248;48.196;10.924;2023-03-01T17:14:13;5.20;38.60
8422;DHT22;4248;48.196;10.924;2023-03-01T17:16:41;5.20;38.40
8422;DHT22;4248;48.196;10.924;2023-03-01T17:19:07;5.20;38.50
8422;DHT22;4248;48.196;10.924;2023-03-01T17:21:33;5.20;38.50
8422;DHT22;4248;48.196;10.924;2023-03-01T17:23:59;5.10;39.00
8422;DHT22;4248;48.196;10.924;2023-03-01T17:26:26;4.90;39.20
8422;DHT22;4248;48.196;10.924;2023-03-01T17:28:54;4.80;39.60
8422;DHT22;4248;48.196;10.924;2023-03-01T17:31:20;4.70;39.60
8422;DHT22;4248;48.196;10.924;2023-03-01T17:33:46;4.80;39.40
8422;DHT22;4248;48.196;10.924;2023-03-01T17:36:12;4.80;39.20
8422;DHT22;4248;48.196;10.924;2023-03-01T17:38:37;4.90;38.90
8422;DHT22;4248;48.196;10.924;2023-03-01T17:41:04;4.90;39.00
8422;DHT22;4248;48.196;10.924;2023-03-01T17:43:30;4.90;38.70
8422;DHT22;4248;48.196;10.924;2023-03-01T17:45:56;5.00;38.60
8422;DHT22;4248;48.196;10.924;2023-03-01T17:48:22;5.00;38.50
8422;DHT22;4248;48.196;10.924;2023-03-01T17:50:47;5.00;38.50
8422;DHT22;4248;48.196;10.924;2023-03-01T17:53:14;5.00;38.50
8422;DHT22;4248;48.196;10.924;2023-03-01T17:55:41;5.10;38.50
8422;DHT22;4248;48.196;10.924;2023-03-01T17:58:09;5.00;38.70
8422;DHT22;4248;48.196;10.924;2023-03-01T18:00:35;5.10;38.80
8422;DHT22;4248;48.196;10.924;2023-03-01T18:03:01;5.10;38.80
8422;DHT22;4248;48.196;10.924;2023-03-01T18:05:27;5.10;38.70
8422;DHT22;4248;48.196;10.924;2023-03-01T18:07:55;5.00;38.70
8422;DHT22;4248;48.196;10.924;2023-03-01T18:10:21;5.00;39.00
8422;DHT22;4248;48.196;10.924;2023-03-01T18:12:47;4.80;39.40
8422;DHT22;4248;48.196;10.924;2023-03-01T18:15:12;4.70;39.80